»·PEaware :: WAT431 KSMF-KDEN

WAT431 :: KSMF-KDEN

FLIGHT INFORMATION

Flight Status: Arrived
Operator:
Walker Air Transport
More flights by this operator :: More flights under this callsign
Pilot: Brian D. (32503)
Aircraft: BOEING 737-800
(B738)
More flights by this aircraft type
Origin: KSMF Sacramento Intl
United States
Destination: KDEN Denver Intl
United States
More flights between these airports :: More routes between these airports
Route: +SCTWN3 RALEY INSLO LUDOH BUMMP SSKII1
File this flight plan on PilotEdge
Remarks: RMK / SIMBRIEF
Altitude:
(Current/Filed)
35,000ft
Speed:
(Current/Filed)
462kts
Departed: 01-Dec-20 12:01 PM
Arrived: 01-Dec-20 01:55 PM
Distance/Time
Traveled:
788nm/1:54
Distance/Time
To Go:
Arrived

Flight Plot

Page will automatically refresh every two minutes.

Flight plan parsing failed; only flown route is shown


Map Options




Map Legend


Flown Route
Filed Route
Departure Airport
Arrival Airport
Navaid (VOR, NDB)
Fix

Horizontal Profiles

Position Reports

Time Latitude Longitude Heading Altitude Ground
Speed
01-Dec-20 11:31 38.693933 -121.586962 270 31ft 0kts
01-Dec-20 11:32 38.693933 -121.586962 270 31ft 0kts
01-Dec-20 11:33 38.693933 -121.586962 270 31ft 0kts
01-Dec-20 11:34 38.693933 -121.586962 270 31ft 0kts
01-Dec-20 11:35 38.693933 -121.586962 270 31ft 0kts
01-Dec-20 11:36 38.693933 -121.586962 270 31ft 0kts
01-Dec-20 11:37 38.693933 -121.586962 270 31ft 0kts
01-Dec-20 11:38 38.693933 -121.586962 270 31ft 0kts
01-Dec-20 11:39 38.693933 -121.586962 270 31ft 0kts
01-Dec-20 11:40 38.693933 -121.586962 270 31ft 0kts
01-Dec-20 11:41 38.693933 -121.586962 270 31ft 0kts
01-Dec-20 11:42 38.693933 -121.586962 270 31ft 0kts
01-Dec-20 11:43 38.693933 -121.586962 270 31ft 0kts
01-Dec-20 11:44 38.693933 -121.586962 270 31ft 0kts
01-Dec-20 11:45 38.693933 -121.586962 270 31ft 0kts
01-Dec-20 11:46 38.693933 -121.586962 270 31ft 0kts
01-Dec-20 11:47 38.693933 -121.586962 270 31ft 0kts
01-Dec-20 11:48 38.693933 -121.586962 270 31ft 0kts
01-Dec-20 11:49 38.693933 -121.586962 270 31ft 0kts
01-Dec-20 11:50 38.693933 -121.586962 270 31ft 0kts
01-Dec-20 11:51 38.693933 -121.586962 270 31ft 0kts
01-Dec-20 11:52 38.693700 -121.586509 351 31ft 2kts
01-Dec-20 11:53 38.693593 -121.586505 1 31ft 0kts
01-Dec-20 11:54 38.693593 -121.586505 1 31ft 0kts
01-Dec-20 11:55 38.693960 -121.586039 75 31ft 7kts
01-Dec-20 11:56 38.696023 -121.582880 1 31ft 19kts
01-Dec-20 11:57 38.702297 -121.582767 0 31ft 21kts
01-Dec-20 11:58 38.707004 -121.581372 89 31ft 10kts
01-Dec-20 11:59 38.706764 -121.580284 137 31ft 20kts
01-Dec-20 12:00 38.676094 -121.580755 181 544ft 182kts
01-Dec-20 12:01 38.645647 -121.553247 97 3008ft 172kts
01-Dec-20 12:02 38.636579 -121.487904 102 4270ft 225kts
01-Dec-20 12:03 38.631943 -121.398641 88 6302ft 273kts
01-Dec-20 12:04 38.634797 -121.298862 89 8585ft 291kts
01-Dec-20 12:05 38.637406 -121.196715 89 8593ft 286kts
01-Dec-20 12:06 38.639937 -121.091725 90 10654ft 306kts
01-Dec-20 12:07 38.643039 -120.978676 89 12597ft 347kts
01-Dec-20 12:08 38.648277 -120.843986 88 14111ft 394kts
01-Dec-20 12:09 38.652996 -120.701137 91 16533ft 408kts
01-Dec-20 12:10 38.649093 -120.553696 93 18778ft 420kts
01-Dec-20 12:11 38.643931 -120.401869 93 20891ft 431kts
01-Dec-20 12:12 38.639262 -120.248311 93 22723ft 441kts
01-Dec-20 12:13 38.635111 -120.089274 93 24428ft 451kts
01-Dec-20 12:14 38.630901 -119.926713 93 25959ft 461kts
01-Dec-20 12:15 38.626477 -119.760620 93 27339ft 472kts
01-Dec-20 12:16 38.621751 -119.591256 93 28610ft 481kts
01-Dec-20 12:17 38.616728 -119.419657 94 30119ft 481kts
01-Dec-20 12:18 38.611510 -119.249391 94 31608ft 479kts
01-Dec-20 12:19 38.606020 -119.078494 94 32932ft 479kts
01-Dec-20 12:20 38.600267 -118.907729 94 34134ft 479kts
01-Dec-20 12:21 38.594276 -118.737423 95 35190ft 480kts
01-Dec-20 12:22 38.587900 -118.563833 95 35161ft 492kts
01-Dec-20 12:23 38.581287 -118.390187 95 35049ft 488kts
01-Dec-20 12:24 38.576151 -118.216208 85 35054ft 493kts
01-Dec-20 12:25 38.595076 -118.044115 83 35101ft 494kts
01-Dec-20 12:26 38.615134 -117.869932 83 35048ft 493kts
01-Dec-20 12:27 38.635110 -117.696340 83 35103ft 495kts
01-Dec-20 12:28 38.655025 -117.521621 83 35102ft 495kts
01-Dec-20 12:29 38.673580 -117.347384 89 35099ft 494kts
01-Dec-20 12:30 38.671848 -117.172437 95 35102ft 492kts
01-Dec-20 12:31 38.665037 -116.997450 95 35102ft 492kts
01-Dec-20 12:32 38.657146 -116.822591 95 35102ft 493kts
01-Dec-20 12:33 38.648733 -116.647209 96 35102ft 493kts
01-Dec-20 12:34 38.640007 -116.472161 96 35156ft 494kts
01-Dec-20 12:35 38.631067 -116.298012 96 35156ft 494kts
01-Dec-20 12:36 38.621835 -116.122669 96 35156ft 494kts
01-Dec-20 12:37 38.612270 -115.946863 96 35156ft 495kts
01-Dec-20 12:38 38.602452 -115.771475 96 35144ft 495kts
01-Dec-20 12:39 38.592344 -115.595727 96 35129ft 495kts
01-Dec-20 12:40 38.581957 -115.419783 96 35129ft 496kts
01-Dec-20 12:41 38.571428 -115.245154 97 35129ft 496kts
01-Dec-20 12:42 38.560526 -115.068889 97 35129ft 497kts
01-Dec-20 12:43 38.549349 -114.892959 97 35129ft 497kts
01-Dec-20 12:44 38.537876 -114.716723 97 35129ft 498kts
01-Dec-20 12:45 38.527597 -114.562246 97 35129ft 498kts
01-Dec-20 12:47 38.515559 -114.385163 97 35129ft 498kts
01-Dec-20 12:48 38.503414 -114.209568 98 35129ft 498kts
01-Dec-20 12:49 38.490923 -114.033261 97 35048ft 498kts
01-Dec-20 12:50 38.478132 -113.856921 97 35048ft 499kts
01-Dec-20 12:51 38.465063 -113.680487 97 35048ft 499kts
01-Dec-20 12:52 38.451680 -113.503518 97 35048ft 500kts
01-Dec-20 12:53 38.438174 -113.328414 98 35048ft 500kts
01-Dec-20 12:54 38.424343 -113.151705 98 35048ft 500kts
01-Dec-20 12:55 38.410192 -112.975074 98 35048ft 501kts
01-Dec-20 12:56 38.395775 -112.798670 98 35048ft 501kts
01-Dec-20 12:57 38.381037 -112.621725 98 35048ft 501kts
01-Dec-20 12:58 38.366017 -112.444672 98 35048ft 501kts
01-Dec-20 12:59 38.351015 -112.270541 99 35238ft 501kts
01-Dec-20 13:00 38.335468 -112.093087 98 35237ft 502kts
01-Dec-20 13:01 38.319711 -111.916808 98 35293ft 502kts
01-Dec-20 13:02 38.303627 -111.740023 98 35291ft 503kts
01-Dec-20 13:03 38.287262 -111.563170 98 35291ft 503kts
01-Dec-20 13:04 38.270649 -111.386593 98 35291ft 503kts
01-Dec-20 13:04 38.256665 -111.239594 99 35291ft 503kts
01-Dec-20 13:06 38.236653 -111.032957 99 35291ft 503kts
01-Dec-20 13:06 38.222104 -110.885360 99 35075ft 505kts
01-Dec-20 13:07 38.204457 -110.708893 99 34968ft 503kts
01-Dec-20 13:08 38.186449 -110.531623 99 34967ft 505kts
01-Dec-20 13:09 38.168238 -110.355034 99 34967ft 505kts
01-Dec-20 13:10 38.149790 -110.178095 99 34967ft 505kts
01-Dec-20 13:11 38.136264 -110.000357 95 34967ft 506kts
01-Dec-20 13:12 38.129326 -109.821859 93 34967ft 507kts
01-Dec-20 13:13 38.123743 -109.643038 93 35239ft 508kts
01-Dec-20 13:14 38.118331 -109.463861 93 35237ft 505kts
01-Dec-20 13:15 38.112845 -109.285100 93 35237ft 506kts
01-Dec-20 13:16 38.107146 -109.105863 93 35237ft 506kts
01-Dec-20 13:17 38.114451 -108.927846 74 35238ft 507kts
01-Dec-20 13:18 38.169158 -108.763879 61 35237ft 505kts
01-Dec-20 13:19 38.231864 -108.603885 61 35237ft 504kts
01-Dec-20 13:20 38.294213 -108.444239 61 35454ft 506kts
01-Dec-20 13:22 38.367297 -108.256242 61 35155ft 503kts
01-Dec-20 13:22 38.418882 -108.122902 61 35157ft 505kts
01-Dec-20 13:23 38.480295 -107.962149 62 35156ft 505kts
01-Dec-20 13:24 38.540835 -107.800249 62 35156ft 504kts
01-Dec-20 13:25 38.601326 -107.639076 62 35156ft 504kts
01-Dec-20 13:26 38.662004 -107.477049 61 35156ft 504kts
01-Dec-20 13:27 38.723133 -107.314881 62 35267ft 503kts
01-Dec-20 13:28 38.784397 -107.152646 62 35264ft 504kts
01-Dec-20 13:29 38.845358 -106.990412 62 35264ft 504kts
01-Dec-20 13:30 38.906181 -106.827702 62 35264ft 504kts
01-Dec-20 13:31 38.966565 -106.665287 62 35264ft 503kts
01-Dec-20 13:32 39.026368 -106.501991 62 34792ft 501kts
01-Dec-20 13:33 39.085222 -106.339628 63 32039ft 497kts
01-Dec-20 13:34 39.145084 -106.175088 63 30513ft 505kts
01-Dec-20 13:35 39.203767 -106.012170 64 28085ft 495kts
01-Dec-20 13:36 39.259370 -105.857626 64 25580ft 447kts
01-Dec-20 13:37 39.311031 -105.713603 65 22930ft 436kts
01-Dec-20 13:38 39.361596 -105.573498 63 20380ft 423kts
01-Dec-20 13:39 39.407801 -105.439776 73 19068ft 383kts
01-Dec-20 13:40 39.417230 -105.305543 88 16960ft 368kts
01-Dec-20 13:41 39.418115 -105.179836 88 15019ft 327kts
01-Dec-20 13:42 39.418692 -105.068267 87 13609ft 294kts
01-Dec-20 13:43 39.419048 -104.971056 87 13157ft 254kts
01-Dec-20 13:44 39.424951 -104.875087 81 12179ft 276kts
01-Dec-20 13:45 39.433742 -104.777664 80 11165ft 270kts
01-Dec-20 13:46 39.465083 -104.693779 34 10988ft 261kts
01-Dec-20 13:47 39.532620 -104.665354 5 10956ft 255kts
01-Dec-20 13:48 39.604169 -104.663250 358 9665ft 265kts
01-Dec-20 13:49 39.672722 -104.661283 6 8482ft 220kts
01-Dec-20 13:50 39.727009 -104.661970 357 7359ft 173kts
01-Dec-20 13:51 39.772785 -104.661538 359 6482ft 159kts
01-Dec-20 13:52 39.817053 -104.660619 0 5633ft 158kts
01-Dec-20 13:53 39.847992 -104.660930 343 5329ft 53kts
01-Dec-20 13:54 39.849833 -104.662127 333 5329ft 8kts
01-Dec-20 13:55 39.855838 -104.663110 272 5329ft 20kts
01-Dec-20 13:56 39.855854 -104.668726 270 5329ft 16kts
01-Dec-20 13:57 39.854486 -104.671168 161 5329ft 1kts
01-Dec-20 13:58 39.854476 -104.671164 161 5329ft 0kts
01-Dec-20 13:59 39.854476 -104.671164 161 5329ft 0kts

Navigation Log

Ident Type
Flight plan parsing failed, navigation log unavailable